sensor_id;sensor_type;location;lat;lon;timestamp;temperature;humidity
28247;DHT22;66191;53.178;22.058;2023-02-28T00:01:29;-2.90;97.60
28247;DHT22;66191;53.178;22.058;2023-02-28T00:04:00;-3.00;97.40
28247;DHT22;66191;53.178;22.058;2023-02-28T00:06:31;-3.00;97.30
28247;DHT22;66191;53.178;22.058;2023-02-28T00:09:02;-3.00;97.30
28247;DHT22;66191;53.178;22.058;2023-02-28T00:11:36;-3.00;97.30
28247;DHT22;66191;53.178;22.058;2023-02-28T00:14:07;-3.00;97.10
28247;DHT22;66191;53.178;22.058;2023-02-28T00:16:38;-3.10;97.10
28247;DHT22;66191;53.178;22.058;2023-02-28T00:19:09;-3.10;97.10
28247;DHT22;66191;53.178;22.058;2023-02-28T00:21:41;-3.10;97.20
28247;DHT22;66191;53.178;22.058;2023-02-28T00:24:12;-3.20;97.10
28247;DHT22;66191;53.178;22.058;2023-02-28T00:26:45;-3.20;97.20
28247;DHT22;66191;53.178;22.058;2023-02-28T00:29:17;-3.20;97.50
28247;DHT22;66191;53.178;22.058;2023-02-28T00:31:48;-3.20;97.50
28247;DHT22;66191;53.178;22.058;2023-02-28T00:34:19;-3.20;97.30
28247;DHT22;66191;53.178;22.058;2023-02-28T00:36:50;-3.30;97.30
28247;DHT22;66191;53.178;22.058;2023-02-28T00:39:20;-3.30;97.30
28247;DHT22;66191;53.178;22.058;2023-02-28T00:41:54;-3.30;97.70
28247;DHT22;66191;53.178;22.058;2023-02-28T00:44:25;-3.30;97.30
28247;DHT22;66191;53.178;22.058;2023-02-28T00:46:56;-3.40;97.20
28247;DHT22;66191;53.178;22.058;2023-02-28T00:49:28;-3.40;97.60
28247;DHT22;66191;53.178;22.058;2023-02-28T00:51:59;-3.40;97.50
28247;DHT22;66191;53.178;22.058;2023-02-28T00:54:30;-3.40;97.40
28247;DHT22;66191;53.178;22.058;2023-02-28T00:57:04;-3.40;97.70
28247;DHT22;66191;53.178;22.058;2023-02-28T00:59:35;-3.40;97.50
28247;DHT22;66191;53.178;22.058;2023-02-28T01:02:06;-3.40;97.60
28247;DHT22;66191;53.178;22.058;2023-02-28T01:04:37;-3.40;97.40
28247;DHT22;66191;53.178;22.058;2023-02-28T01:07:08;-3.40;97.40
28247;DHT22;66191;53.178;22.058;2023-02-28T01:09:39;-3.50;97.40
28247;DHT22;66191;53.178;22.058;2023-02-28T01:12:13;-3.50;97.40
28247;DHT22;66191;53.178;22.058;2023-02-28T01:14:47;-3.50;97.30
28247;DHT22;66191;53.178;22.058;2023-02-28T01:17:18;-3.50;97.30
28247;DHT22;66191;53.178;22.058;2023-02-28T01:19:49;-3.50;97.40
28247;DHT22;66191;53.178;22.058;2023-02-28T01:22:20;-3.50;97.30
28247;DHT22;66191;53.178;22.058;2023-02-28T01:24:51;-3.50;97.20
28247;DHT22;66191;53.178;22.058;2023-02-28T01:27:25;-3.60;97.10
28247;DHT22;66191;53.178;22.058;2023-02-28T01:29:56;-3.60;97.10
28247;DHT22;66191;53.178;22.058;2023-02-28T01:32:27;-3.60;97.10
28247;DHT22;66191;53.178;22.058;2023-02-28T01:34:58;-3.60;97.20
28247;DHT22;66191;53.178;22.058;2023-02-28T01:37:29;-3.60;97.10
28247;DHT22;66191;53.178;22.058;2023-02-28T01:39:59;-3.70;97.10
28247;DHT22;66191;53.178;22.058;2023-02-28T01:42:33;-3.70;97.20
28247;DHT22;66191;53.178;22.058;2023-02-28T01:45:16;-3.70;97.20
28247;DHT22;66191;53.178;22.058;2023-02-28T01:47:51;-3.70;97.10
28247;DHT22;66191;53.178;22.058;2023-02-28T01:50:25;-3.80;97.10
28247;DHT22;66191;53.178;22.058;2023-02-28T01:53:02;-3.80;97.00
28247;DHT22;66191;53.178;22.058;2023-02-28T01:55:34;-3.80;97.00
28247;DHT22;66191;53.178;22.058;2023-02-28T01:58:09;-3.90;97.10
28247;DHT22;66191;53.178;22.058;2023-02-28T02:00:40;-3.90;97.10
28247;DHT22;66191;53.178;22.058;2023-02-28T02:03:13;-3.90;96.90
28247;DHT22;66191;53.178;22.058;2023-02-28T02:05:46;-3.90;97.00
28247;DHT22;66191;53.178;22.058;2023-02-28T02:08:20;-3.90;96.90
28247;DHT22;66191;53.178;22.058;2023-02-28T02:10:54;-3.90;96.90
28247;DHT22;66191;53.178;22.058;2023-02-28T02:13:52;-4.00;96.80
28247;DHT22;66191;53.178;22.058;2023-02-28T02:16:35;-4.00;96.90
28247;DHT22;66191;53.178;22.058;2023-02-28T02:19:30;-4.00;96.90
28247;DHT22;66191;53.178;22.058;2023-02-28T02:22:22;-4.00;96.90
28247;DHT22;66191;53.178;22.058;2023-02-28T02:25:11;-4.00;96.90
28247;DHT22;66191;53.178;22.058;2023-02-28T02:27:57;-4.10;96.80
28247;DHT22;66191;53.178;22.058;2023-02-28T02:36:40;-4.10;96.90
28247;DHT22;66191;53.178;22.058;2023-02-28T02:39:23;-4.10;96.90
28247;DHT22;66191;53.178;22.058;2023-02-28T02:42:00;-4.10;96.90
28247;DHT22;66191;53.178;22.058;2023-02-28T02:44:39;-4.10;97.00
28247;DHT22;66191;53.178;22.058;2023-02-28T02:47:14;-4.10;96.90
28247;DHT22;66191;53.178;22.058;2023-02-28T02:49:49;-4.20;97.00
28247;DHT22;66191;53.178;22.058;2023-02-28T02:52:31;-4.20;97.00
28247;DHT22;66191;53.178;22.058;2023-02-28T02:55:07;-4.20;97.10
28247;DHT22;66191;53.178;22.058;2023-02-28T02:57:46;-4.30;97.00
28247;DHT22;66191;53.178;22.058;2023-02-28T03:00:22;-4.30;97.00
28247;DHT22;66191;53.178;22.058;2023-02-28T03:02:55;-4.30;97.00
28247;DHT22;66191;53.178;22.058;2023-02-28T03:05:32;-4.30;97.00
28247;DHT22;66191;53.178;22.058;2023-02-28T03:08:07;-4.30;97.10
28247;DHT22;66191;53.178;22.058;2023-02-28T03:10:40;-4.30;97.20
28247;DHT22;66191;53.178;22.058;2023-02-28T03:19:17;-4.30;97.20
28247;DHT22;66191;53.178;22.058;2023-02-28T03:21:57;-4.40;97.30
28247;DHT22;66191;53.178;22.058;2023-02-28T03:24:38;-4.40;97.20
28247;DHT22;66191;53.178;22.058;2023-02-28T03:27:16;-4.40;97.20
28247;DHT22;66191;53.178;22.058;2023-02-28T03:29:51;-4.40;97.30
28247;DHT22;66191;53.178;22.058;2023-02-28T03:32:29;-4.50;97.20
28247;DHT22;66191;53.178;22.058;2023-02-28T03:35:07;-4.40;97.20
28247;DHT22;66191;53.178;22.058;2023-02-28T03:37:41;-4.40;97.30
28247;DHT22;66191;53.178;22.058;2023-02-28T03:40:19;-4.40;97.20
28247;DHT22;66191;53.178;22.058;2023-02-28T03:42:56;-4.40;97.30
28247;DHT22;66191;53.178;22.058;2023-02-28T03:45:32;-4.40;97.40
28247;DHT22;66191;53.178;22.058;2023-02-28T03:48:11;-4.40;97.30
28247;DHT22;66191;53.178;22.058;2023-02-28T03:50:46;-4.40;97.20
28247;DHT22;66191;53.178;22.058;2023-02-28T03:53:20;-4.40;97.20
28247;DHT22;66191;53.178;22.058;2023-02-28T03:55:58;-4.50;97.00
28247;DHT22;66191;53.178;22.058;2023-02-28T03:58:35;-4.40;97.10
28247;DHT22;66191;53.178;22.058;2023-02-28T04:01:11;-4.40;97.20
28247;DHT22;66191;53.178;22.058;2023-02-28T04:03:43;-4.40;97.20
28247;DHT22;66191;53.178;22.058;2023-02-28T04:06:16;-4.50;97.10
28247;DHT22;66191;53.178;22.058;2023-02-28T04:08:48;-4.40;97.20
28247;DHT22;66191;53.178;22.058;2023-02-28T04:11:27;-4.40;97.00
28247;DHT22;66191;53.178;22.058;2023-02-28T04:14:01;-4.50;97.10
28247;DHT22;66191;53.178;22.058;2023-02-28T04:16:33;-4.50;96.80
28247;DHT22;66191;53.178;22.058;2023-02-28T04:19:06;-4.50;96.80
28247;DHT22;66191;53.178;22.058;2023-02-28T04:21:39;-4.50;96.90
28247;DHT22;66191;53.178;22.058;2023-02-28T04:24:12;-4.50;96.90
28247;DHT22;66191;53.178;22.058;2023-02-28T04:26:48;-4.50;96.70
28247;DHT22;66191;53.178;22.058;2023-02-28T04:29:20;-4.60;96.70
28247;DHT22;66191;53.178;22.058;2023-02-28T04:31:52;-4.60;96.60
28247;DHT22;66191;53.178;22.058;2023-02-28T04:34:26;-4.60;96.80
28247;DHT22;66191;53.178;22.058;2023-02-28T04:36:57;-4.60;96.80
28247;DHT22;66191;53.178;22.058;2023-02-28T04:39:40;-4.60;96.90
28247;DHT22;66191;53.178;22.058;2023-02-28T04:42:15;-4.60;96.90
28247;DHT22;66191;53.178;22.058;2023-02-28T04:44:46;-4.60;96.90
28247;DHT22;66191;53.178;22.058;2023-02-28T04:47:17;-4.60;97.00
28247;DHT22;66191;53.178;22.058;2023-02-28T04:49:48;-4.70;96.90
28247;DHT22;66191;53.178;22.058;2023-02-28T04:52:19;-4.70;97.10
28247;DHT22;66191;53.178;22.058;2023-02-28T04:54:50;-4.60;97.00
28247;DHT22;66191;53.178;22.058;2023-02-28T04:57:24;-4.60;97.00
28247;DHT22;66191;53.178;22.058;2023-02-28T04:59:54;-4.70;97.00
28247;DHT22;66191;53.178;22.058;2023-02-28T05:02:26;-4.60;97.10
28247;DHT22;66191;53.178;22.058;2023-02-28T05:04:57;-4.60;96.90
28247;DHT22;66191;53.178;22.058;2023-02-28T05:07:28;-4.60;96.90
28247;DHT22;66191;53.178;22.058;2023-02-28T05:09:59;-4.70;96.90
28247;DHT22;66191;53.178;22.058;2023-02-28T05:12:35;-4.70;96.90
28247;DHT22;66191;53.178;22.058;2023-02-28T05:15:07;-4.70;96.80
28247;DHT22;66191;53.178;22.058;2023-02-28T05:17:39;-4.70;96.80
28247;DHT22;66191;53.178;22.058;2023-02-28T05:20:12;-4.70;96.90
28247;DHT22;66191;53.178;22.058;2023-02-28T05:22:44;-4.70;96.90
28247;DHT22;66191;53.178;22.058;2023-02-28T05:25:18;-4.70;96.70
28247;DHT22;66191;53.178;22.058;2023-02-28T05:27:53;-4.70;96.80
28247;DHT22;66191;53.178;22.058;2023-02-28T05:30:23;-4.70;96.80
28247;DHT22;66191;53.178;22.058;2023-02-28T05:32:54;-4.70;96.90
28247;DHT22;66191;53.178;22.058;2023-02-28T05:35:26;-4.70;96.90
28247;DHT22;66191;53.178;22.058;2023-02-28T05:37:57;-4.70;96.90
28247;DHT22;66191;53.178;22.058;2023-02-28T05:40:28;-4.70;96.90
28247;DHT22;66191;53.178;22.058;2023-02-28T05:43:01;-4.70;96.90
28247;DHT22;66191;53.178;22.058;2023-02-28T05:45:32;-4.70;97.00
28247;DHT22;66191;53.178;22.058;2023-02-28T05:48:04;-4.60;97.10
28247;DHT22;66191;53.178;22.058;2023-02-28T05:50:35;-4.60;97.10
28247;DHT22;66191;53.178;22.058;2023-02-28T05:53:06;-4.60;97.10
28247;DHT22;66191;53.178;22.058;2023-02-28T05:55:38;-4.50;97.40
28247;DHT22;66191;53.178;22.058;2023-02-28T05:58:11;-4.50;97.50
28247;DHT22;66191;53.178;22.058;2023-02-28T06:00:42;-4.40;97.50
28247;DHT22;66191;53.178;22.058;2023-02-28T06:03:13;-4.40;97.60
28247;DHT22;66191;53.178;22.058;2023-02-28T06:05:44;-4.30;97.80
28247;DHT22;66191;53.178;22.058;2023-02-28T06:08:16;-4.20;97.80
28247;DHT22;66191;53.178;22.058;2023-02-28T06:10:47;-4.20;97.90
28247;DHT22;66191;53.178;22.058;2023-02-28T06:13:21;-4.10;98.10
28247;DHT22;66191;53.178;22.058;2023-02-28T06:15:52;-4.10;98.00
28247;DHT22;66191;53.178;22.058;2023-02-28T06:18:23;-4.00;98.00
28247;DHT22;66191;53.178;22.058;2023-02-28T06:20:54;-4.00;98.20
28247;DHT22;66191;53.178;22.058;2023-02-28T06:23:25;-3.90;98.50
28247;DHT22;66191;53.178;22.058;2023-02-28T06:25:56;-3.80;98.30
28247;DHT22;66191;53.178;22.058;2023-02-28T06:28:30;-3.70;98.30
28247;DHT22;66191;53.178;22.058;2023-02-28T06:31:06;-3.60;98.40
28247;DHT22;66191;53.178;22.058;2023-02-28T06:33:38;-3.50;98.60
28247;DHT22;66191;53.178;22.058;2023-02-28T06:36:10;-3.50;98.70
28247;DHT22;66191;53.178;22.058;2023-02-28T06:38:42;-3.40;98.70
28247;DHT22;66191;53.178;22.058;2023-02-28T06:41:13;-3.30;98.70
28247;DHT22;66191;53.178;22.058;2023-02-28T06:43:47;-3.20;98.70
28247;DHT22;66191;53.178;22.058;2023-02-28T06:46:18;-3.10;98.70
28247;DHT22;66191;53.178;22.058;2023-02-28T06:48:50;-3.00;98.70
28247;DHT22;66191;53.178;22.058;2023-02-28T06:51:21;-3.00;98.70
28247;DHT22;66191;53.178;22.058;2023-02-28T06:53:52;-2.90;99.00
28247;DHT22;66191;53.178;22.058;2023-02-28T06:56:24;-2.80;98.80
28247;DHT22;66191;53.178;22.058;2023-02-28T06:58:58;-2.70;98.90
28247;DHT22;66191;53.178;22.058;2023-02-28T07:01:29;-2.60;98.80
28247;DHT22;66191;53.178;22.058;2023-02-28T07:04:02;-2.60;98.70
28247;DHT22;66191;53.178;22.058;2023-02-28T07:06:33;-2.50;98.70
28247;DHT22;66191;53.178;22.058;2023-02-28T07:09:05;-2.40;98.80
28247;DHT22;66191;53.178;22.058;2023-02-28T07:11:36;-2.30;98.80
28247;DHT22;66191;53.178;22.058;2023-02-28T07:14:10;-2.20;98.70
28247;DHT22;66191;53.178;22.058;2023-02-28T07:16:41;-2.10;98.70
28247;DHT22;66191;53.178;22.058;2023-02-28T07:19:14;-2.00;98.70
28247;DHT22;66191;53.178;22.058;2023-02-28T07:21:45;-2.00;98.60
28247;DHT22;66191;53.178;22.058;2023-02-28T07:24:16;-1.90;98.60
28247;DHT22;66191;53.178;22.058;2023-02-28T07:26:47;-1.80;98.60
28247;DHT22;66191;53.178;22.058;2023-02-28T07:29:22;-1.70;98.60
28247;DHT22;66191;53.178;22.058;2023-02-28T07:31:53;-1.70;98.50
28247;DHT22;66191;53.178;22.058;2023-02-28T07:34:24;-1.50;98.40
28247;DHT22;66191;53.178;22.058;2023-02-28T07:36:56;-1.50;98.40
28247;DHT22;66191;53.178;22.058;2023-02-28T07:39:31;-1.40;98.30
28247;DHT22;66191;53.178;22.058;2023-02-28T07:42:04;-1.30;98.20
28247;DHT22;66191;53.178;22.058;2023-02-28T07:44:42;-1.20;98.10
28247;DHT22;66191;53.178;22.058;2023-02-28T07:47:12;-1.10;97.90
28247;DHT22;66191;53.178;22.058;2023-02-28T07:49:48;-1.00;97.80
28247;DHT22;66191;53.178;22.058;2023-02-28T07:52:23;-0.90;97.20
28247;DHT22;66191;53.178;22.058;2023-02-28T07:54:55;-0.90;96.90
28247;DHT22;66191;53.178;22.058;2023-02-28T07:57:26;-0.80;96.70
28247;DHT22;66191;53.178;22.058;2023-02-28T08:00:00;-0.70;96.70
28247;DHT22;66191;53.178;22.058;2023-02-28T08:02:38;-0.70;96.30
28247;DHT22;66191;53.178;22.058;2023-02-28T08:05:09;-0.70;95.70
28247;DHT22;66191;53.178;22.058;2023-02-28T08:07:40;-0.70;95.40
28247;DHT22;66191;53.178;22.058;2023-02-28T08:10:11;-0.60;95.30
28247;DHT22;66191;53.178;22.058;2023-02-28T08:12:42;-0.60;95.00
28247;DHT22;66191;53.178;22.058;2023-02-28T08:15:16;-0.60;94.80
28247;DHT22;66191;53.178;22.058;2023-02-28T08:17:48;-0.60;94.80
28247;DHT22;66191;53.178;22.058;2023-02-28T08:20:20;-0.60;94.70
28247;DHT22;66191;53.178;22.058;2023-02-28T08:22:51;-0.50;94.80
28247;DHT22;66191;53.178;22.058;2023-02-28T08:25:23;-0.50;94.70
28247;DHT22;66191;53.178;22.058;2023-02-28T08:27:53;-0.50;94.10
28247;DHT22;66191;53.178;22.058;2023-02-28T08:30:27;-0.50;94.30
28247;DHT22;66191;53.178;22.058;2023-02-28T08:32:58;-0.40;94.50
28247;DHT22;66191;53.178;22.058;2023-02-28T08:35:30;-0.30;94.60
28247;DHT22;66191;53.178;22.058;2023-02-28T08:38:00;-0.20;94.90
28247;DHT22;66191;53.178;22.058;2023-02-28T08:40:31;-0.20;94.60
28247;DHT22;66191;53.178;22.058;2023-02-28T08:43:02;-0.10;94.70
28247;DHT22;66191;53.178;22.058;2023-02-28T08:45:36;0.00;94.40
28247;DHT22;66191;53.178;22.058;2023-02-28T08:48:08;0.10;94.40
28247;DHT22;66191;53.178;22.058;2023-02-28T08:50:39;0.10;94.30
28247;DHT22;66191;53.178;22.058;2023-02-28T08:53:16;0.20;94.10
28247;DHT22;66191;53.178;22.058;2023-02-28T08:55:55;0.20;93.70
28247;DHT22;66191;53.178;22.058;2023-02-28T08:58:27;0.30;93.80
28247;DHT22;66191;53.178;22.058;2023-02-28T09:01:08;0.40;93.90
28247;DHT22;66191;53.178;22.058;2023-02-28T09:03:40;0.40;93.70
28247;DHT22;66191;53.178;22.058;2023-02-28T09:06:15;0.40;93.40
28247;DHT22;66191;53.178;22.058;2023-02-28T09:08:46;0.50;93.30
28247;DHT22;66191;53.178;22.058;2023-02-28T09:11:18;0.50;93.20
28247;DHT22;66191;53.178;22.058;2023-02-28T09:13:49;0.60;93.30
28247;DHT22;66191;53.178;22.058;2023-02-28T09:16:23;0.60;92.80
28247;DHT22;66191;53.178;22.058;2023-02-28T09:18:55;0.60;92.50
28247;DHT22;66191;53.178;22.058;2023-02-28T09:21:26;0.60;92.30
28247;DHT22;66191;53.178;22.058;2023-02-28T09:23:57;0.70;92.60
28247;DHT22;66191;53.178;22.058;2023-02-28T09:26:29;0.70;92.80
28247;DHT22;66191;53.178;22.058;2023-02-28T09:29:13;0.70;92.60
28247;DHT22;66191;53.178;22.058;2023-02-28T09:31:48;0.80;92.80
28247;DHT22;66191;53.178;22.058;2023-02-28T09:34:20;0.90;92.80
28247;DHT22;66191;53.178;22.058;2023-02-28T09:36:51;0.90;92.20
28247;DHT22;66191;53.178;22.058;2023-02-28T09:39:23;0.80;92.00
28247;DHT22;66191;53.178;22.058;2023-02-28T09:41:56;0.80;91.50
28247;DHT22;66191;53.178;22.058;2023-02-28T09:44:30;0.80;91.30
28247;DHT22;66191;53.178;22.058;2023-02-28T09:47:11;0.80;92.00
28247;DHT22;66191;53.178;22.058;2023-02-28T09:49:46;0.90;91.00
28247;DHT22;66191;53.178;22.058;2023-02-28T09:52:20;0.90;90.20
28247;DHT22;66191;53.178;22.058;2023-02-28T09:54:52;0.90;91.40
28247;DHT22;66191;53.178;22.058;2023-02-28T09:57:32;0.90;91.60
28247;DHT22;66191;53.178;22.058;2023-02-28T10:00:12;1.00;92.00
28247;DHT22;66191;53.178;22.058;2023-02-28T10:03:15;1.00;91.80
28247;DHT22;66191;53.178;22.058;2023-02-28T10:05:53;1.10;91.30
28247;DHT22;66191;53.178;22.058;2023-02-28T10:08:29;1.10;91.50
28247;DHT22;66191;53.178;22.058;2023-02-28T10:11:03;1.20;91.80
28247;DHT22;66191;53.178;22.058;2023-02-28T10:13:46;1.20;91.70
28247;DHT22;66191;53.178;22.058;2023-02-28T10:16:25;1.20;91.70
28247;DHT22;66191;53.178;22.058;2023-02-28T10:19:04;1.30;91.60
28247;DHT22;66191;53.178;22.058;2023-02-28T10:21:40;1.40;91.50
28247;DHT22;66191;53.178;22.058;2023-02-28T10:24:20;1.40;91.50
28247;DHT22;66191;53.178;22.058;2023-02-28T10:26:52;1.50;91.40
28247;DHT22;66191;53.178;22.058;2023-02-28T10:29:28;1.60;91.50
28247;DHT22;66191;53.178;22.058;2023-02-28T10:32:03;1.60;90.80
28247;DHT22;66191;53.178;22.058;2023-02-28T10:34:39;1.60;90.80
28247;DHT22;66191;53.178;22.058;2023-02-28T10:37:11;1.70;90.80
28247;DHT22;66191;53.178;22.058;2023-02-28T10:39:45;1.70;90.60
28247;DHT22;66191;53.178;22.058;2023-02-28T10:42:26;1.70;90.80
28247;DHT22;66191;53.178;22.058;2023-02-28T10:45:12;1.80;90.50
28247;DHT22;66191;53.178;22.058;2023-02-28T10:47:52;1.80;90.50
28247;DHT22;66191;53.178;22.058;2023-02-28T10:50:34;1.90;90.50
28247;DHT22;66191;53.178;22.058;2023-02-28T10:53:22;2.00;90.50
28247;DHT22;66191;53.178;22.058;2023-02-28T10:56:01;2.00;90.30
28247;DHT22;66191;53.178;22.058;2023-02-28T10:58:46;2.00;90.40
28247;DHT22;66191;53.178;22.058;2023-02-28T11:01:20;2.10;89.80
28247;DHT22;66191;53.178;22.058;2023-02-28T11:03:52;2.10;90.20
28247;DHT22;66191;53.178;22.058;2023-02-28T11:06:30;2.10;88.40
28247;DHT22;66191;53.178;22.058;2023-02-28T11:09:04;2.10;87.10
28247;DHT22;66191;53.178;22.058;2023-02-28T11:11:44;2.10;88.10
28247;DHT22;66191;53.178;22.058;2023-02-28T11:14:20;2.20;86.80
28247;DHT22;66191;53.178;22.058;2023-02-28T11:16:52;2.10;85.50
28247;DHT22;66191;53.178;22.058;2023-02-28T11:19:26;2.10;86.30
28247;DHT22;66191;53.178;22.058;2023-02-28T11:22:03;2.10;86.70
28247;DHT22;66191;53.178;22.058;2023-02-28T11:24:36;2.10;87.40
28247;DHT22;66191;53.178;22.058;2023-02-28T11:27:24;2.20;87.00
28247;DHT22;66191;53.178;22.058;2023-02-28T11:29:56;2.20;87.20
28247;DHT22;66191;53.178;22.058;2023-02-28T11:32:28;2.20;86.80
28247;DHT22;66191;53.178;22.058;2023-02-28T11:35:04;2.30;87.20
28247;DHT22;66191;53.178;22.058;2023-02-28T11:37:47;2.30;86.70
28247;DHT22;66191;53.178;22.058;2023-02-28T11:40:21;2.30;84.70
28247;DHT22;66191;53.178;22.058;2023-02-28T11:43:01;2.30;85.90
28247;DHT22;66191;53.178;22.058;2023-02-28T11:45:48;2.30;85.60
28247;DHT22;66191;53.178;22.058;2023-02-28T11:48:29;2.40;85.70
28247;DHT22;66191;53.178;22.058;2023-02-28T11:51:10;2.40;86.40
28247;DHT22;66191;53.178;22.058;2023-02-28T11:54:11;2.50;86.80
28247;DHT22;66191;53.178;22.058;2023-02-28T11:56:51;2.60;86.60
28247;DHT22;66191;53.178;22.058;2023-02-28T11:59:35;2.60;86.80
28247;DHT22;66191;53.178;22.058;2023-02-28T12:02:30;2.60;85.60
28247;DHT22;66191;53.178;22.058;2023-02-28T12:05:12;2.60;86.00
28247;DHT22;66191;53.178;22.058;2023-02-28T12:07:54;2.70;85.20
28247;DHT22;66191;53.178;22.058;2023-02-28T12:10:37;2.70;85.10
28247;DHT22;66191;53.178;22.058;2023-02-28T12:13:20;2.70;85.80
28247;DHT22;66191;53.178;22.058;2023-02-28T12:16:16;2.80;86.10
28247;DHT22;66191;53.178;22.058;2023-02-28T12:18:57;2.80;85.30
28247;DHT22;66191;53.178;22.058;2023-02-28T12:21:40;2.90;85.90
28247;DHT22;66191;53.178;22.058;2023-02-28T12:24:47;2.90;86.00
28247;DHT22;66191;53.178;22.058;2023-02-28T12:27:28;2.90;85.00
28247;DHT22;66191;53.178;22.058;2023-02-28T12:30:03;3.00;85.40
28247;DHT22;66191;53.178;22.058;2023-02-28T12:32:38;3.00;84.90
28247;DHT22;66191;53.178;22.058;2023-02-28T12:35:13;3.00;84.90
28247;DHT22;66191;53.178;22.058;2023-02-28T12:37:49;3.10;84.90
28247;DHT22;66191;53.178;22.058;2023-02-28T12:40:23;3.10;83.60
28247;DHT22;66191;53.178;22.058;2023-02-28T12:42:59;3.10;83.10
28247;DHT22;66191;53.178;22.058;2023-02-28T12:45:39;3.20;80.80
28247;DHT22;66191;53.178;22.058;2023-02-28T12:48:14;3.20;82.40
28247;DHT22;66191;53.178;22.058;2023-02-28T12:50:48;3.20;82.40
28247;DHT22;66191;53.178;22.058;2023-02-28T12:53:25;3.20;80.40
28247;DHT22;66191;53.178;22.058;2023-02-28T12:56:07;3.20;80.30
28247;DHT22;66191;53.178;22.058;2023-02-28T12:58:46;3.30;81.20
28247;DHT22;66191;53.178;22.058;2023-02-28T13:01:35;3.30;80.90
28247;DHT22;66191;53.178;22.058;2023-02-28T13:07:15;3.40;80.10
28247;DHT22;66191;53.178;22.058;2023-02-28T13:09:53;3.40;79.40
28247;DHT22;66191;53.178;22.058;2023-02-28T13:12:25;3.40;79.90
28247;DHT22;66191;53.178;22.058;2023-02-28T13:15:07;3.50;80.00
28247;DHT22;66191;53.178;22.058;2023-02-28T13:17:48;3.50;79.30
28247;DHT22;66191;53.178;22.058;2023-02-28T13:20:23;3.50;79.20
28247;DHT22;66191;53.178;22.058;2023-02-28T13:22:55;3.60;79.00
28247;DHT22;66191;53.178;22.058;2023-02-28T13:25:53;3.60;78.20
28247;DHT22;66191;53.178;22.058;2023-02-28T13:34:46;3.70;78.40
28247;DHT22;66191;53.178;22.058;2023-02-28T13:37:36;3.70;78.40
28247;DHT22;66191;53.178;22.058;2023-02-28T13:40:30;3.70;77.60
28247;DHT22;66191;53.178;22.058;2023-02-28T13:43:08;3.80;76.40
28247;DHT22;66191;53.178;22.058;2023-02-28T13:45:39;3.80;77.10
28247;DHT22;66191;53.178;22.058;2023-02-28T13:48:30;3.80;77.10
28247;DHT22;66191;53.178;22.058;2023-02-28T13:53:59;3.80;73.00
28247;DHT22;66191;53.178;22.058;2023-02-28T13:56:42;3.80;73.80
28247;DHT22;66191;53.178;22.058;2023-02-28T13:59:22;3.80;74.80
28247;DHT22;66191;53.178;22.058;2023-02-28T14:02:11;3.80;74.60
28247;DHT22;66191;53.178;22.058;2023-02-28T14:05:00;3.80;75.20
28247;DHT22;66191;53.178;22.058;2023-02-28T14:07:41;3.90;74.80
28247;DHT22;66191;53.178;22.058;2023-02-28T14:10:26;3.90;75.40
28247;DHT22;66191;53.178;22.058;2023-02-28T14:13:10;3.90;75.30
28247;DHT22;66191;53.178;22.058;2023-02-28T14:15:47;3.90;74.90
28247;DHT22;66191;53.178;22.058;2023-02-28T14:18:25;3.90;74.60
28247;DHT22;66191;53.178;22.058;2023-02-28T14:21:03;3.90;71.30
28247;DHT22;66191;53.178;22.058;2023-02-28T14:27:12;3.90;72.50
28247;DHT22;66191;53.178;22.058;2023-02-28T14:30:03;4.00;73.60
28247;DHT22;66191;53.178;22.058;2023-02-28T14:32:46;4.00;74.00
28247;DHT22;66191;53.178;22.058;2023-02-28T14:35:35;4.00;74.70
28247;DHT22;66191;53.178;22.058;2023-02-28T14:38:17;4.00;73.00
28247;DHT22;66191;53.178;22.058;2023-02-28T14:40:49;4.00;72.60
28247;DHT22;66191;53.178;22.058;2023-02-28T14:43:27;4.00;69.80
28247;DHT22;66191;53.178;22.058;2023-02-28T14:46:00;4.00;72.60
28247;DHT22;66191;53.178;22.058;2023-02-28T14:48:33;4.00;73.30
28247;DHT22;66191;53.178;22.058;2023-02-28T14:51:06;4.00;73.70
28247;DHT22;66191;53.178;22.058;2023-02-28T14:53:38;4.00;74.70
28247;DHT22;66191;53.178;22.058;2023-02-28T14:56:19;4.00;75.60
28247;DHT22;66191;53.178;22.058;2023-02-28T14:58:57;4.00;76.30
28247;DHT22;66191;53.178;22.058;2023-02-28T15:01:28;4.00;76.70
28247;DHT22;66191;53.178;22.058;2023-02-28T15:04:02;4.00;76.60
28247;DHT22;66191;53.178;22.058;2023-02-28T15:06:33;4.00;76.70
28247;DHT22;66191;53.178;22.058;2023-02-28T15:09:10;4.00;76.50
28247;DHT22;66191;53.178;22.058;2023-02-28T15:11:41;3.90;76.80
28247;DHT22;66191;53.178;22.058;2023-02-28T15:14:20;3.90;76.90
28247;DHT22;66191;53.178;22.058;2023-02-28T15:16:56;3.90;77.20
28247;DHT22;66191;53.178;22.058;2023-02-28T15:19:30;3.90;77.20
28247;DHT22;66191;53.178;22.058;2023-02-28T15:22:05;3.90;77.30
28247;DHT22;66191;53.178;22.058;2023-02-28T15:24:39;3.90;77.30
28247;DHT22;66191;53.178;22.058;2023-02-28T15:27:15;3.90;77.40
28247;DHT22;66191;53.178;22.058;2023-02-28T15:29:56;3.80;77.50
28247;DHT22;66191;53.178;22.058;2023-02-28T15:32:29;3.80;77.60
28247;DHT22;66191;53.178;22.058;2023-02-28T15:35:20;3.80;77.70
28247;DHT22;66191;53.178;22.058;2023-02-28T15:37:54;3.80;77.80
28247;DHT22;66191;53.178;22.058;2023-02-28T15:40:28;3.70;78.00
28247;DHT22;66191;53.178;22.058;2023-02-28T15:43:04;3.70;78.30
28247;DHT22;66191;53.178;22.058;2023-02-28T15:45:41;3.70;78.40
28247;DHT22;66191;53.178;22.058;2023-02-28T15:48:17;3.60;78.60
28247;DHT22;66191;53.178;22.058;2023-02-28T15:50:51;3.60;79.00
28247;DHT22;66191;53.178;22.058;2023-02-28T15:53:26;3.60;79.30
28247;DHT22;66191;53.178;22.058;2023-02-28T15:56:02;3.50;79.60
28247;DHT22;66191;53.178;22.058;2023-02-28T15:58:35;3.50;79.70
28247;DHT22;66191;53.178;22.058;2023-02-28T16:01:19;3.40;80.00
28247;DHT22;66191;53.178;22.058;2023-02-28T16:03:52;3.40;80.10
28247;DHT22;66191;53.178;22.058;2023-02-28T16:06:38;3.30;80.30
28247;DHT22;66191;53.178;22.058;2023-02-28T16:09:12;3.30;80.50
28247;DHT22;66191;53.178;22.058;2023-02-28T16:11:46;3.20;80.70
28247;DHT22;66191;53.178;22.058;2023-02-28T16:14:19;3.20;80.90
28247;DHT22;66191;53.178;22.058;2023-02-28T16:16:56;3.10;81.10
28247;DHT22;66191;53.178;22.058;2023-02-28T16:19:27;3.10;81.30
28247;DHT22;66191;53.178;22.058;2023-02-28T16:22:01;3.00;81.30
28247;DHT22;66191;53.178;22.058;2023-02-28T16:24:32;2.90;81.50
28247;DHT22;66191;53.178;22.058;2023-02-28T16:27:04;2.90;81.90
28247;DHT22;66191;53.178;22.058;2023-02-28T16:29:36;2.80;82.30
28247;DHT22;66191;53.178;22.058;2023-02-28T16:32:12;2.70;82.60
28247;DHT22;66191;53.178;22.058;2023-02-28T16:34:44;2.70;83.10
28247;DHT22;66191;53.178;22.058;2023-02-28T16:37:16;2.60;83.20
28247;DHT22;66191;53.178;22.058;2023-02-28T16:39:47;2.60;83.70
28247;DHT22;66191;53.178;22.058;2023-02-28T16:42:21;2.50;84.00